createdAt,value
2017-10-25T00:00:06.908Z,71.50
2017-10-25T00:02:33.158Z,71.30
2017-10-25T00:04:59.418Z,71.40
2017-10-25T00:07:25.667Z,70.70
2017-10-25T00:09:51.909Z,70.50
2017-10-25T00:12:20.136Z,70.50
2017-10-25T00:14:46.634Z,70.50
2017-10-25T00:17:13.693Z,70.50
2017-10-25T00:19:40.686Z,70.50
2017-10-25T00:22:08.008Z,70.60
2017-10-25T00:24:34.977Z,70.60
2017-10-25T00:27:01.218Z,70.50
2017-10-25T00:29:27.484Z,70.50
2017-10-25T00:31:53.775Z,71.30
2017-10-25T00:34:20.034Z,71.10
2017-10-25T00:36:47.034Z,71.10
2017-10-25T00:39:13.795Z,71.00
2017-10-25T00:41:40.049Z,70.80
2017-10-25T00:44:07.037Z,70.70
2017-10-25T00:46:33.309Z,70.00
2017-10-25T00:49:00.326Z,70.10
2017-10-25T00:51:26.655Z,70.10
2017-10-25T00:53:52.955Z,70.00
2017-10-25T00:56:19.221Z,69.60
2017-10-25T00:58:45.501Z,70.50
2017-10-25T01:01:11.814Z,70.00
2017-10-25T01:03:38.078Z,70.20
2017-10-25T01:06:04.341Z,70.00
2017-10-25T01:08:30.605Z,70.50
2017-10-25T01:10:56.903Z,70.30
2017-10-25T01:13:23.945Z,70.50
2017-10-25T01:15:50.209Z,70.20
2017-10-25T01:18:17.230Z,70.10
2017-10-25T01:20:43.478Z,70.10
2017-10-25T01:23:10.480Z,69.50
2017-10-25T01:25:36.735Z,69.50
2017-10-25T01:28:02.984Z,69.50
2017-10-25T01:30:29.205Z,69.80
2017-10-25T01:32:56.225Z,70.20
2017-10-25T01:35:22.481Z,70.20
2017-10-25T01:37:48.781Z,70.20
2017-10-25T01:40:15.044Z,70.20
2017-10-25T01:42:41.307Z,70.60
2017-10-25T01:45:07.553Z,71.80
2017-10-25T01:47:33.818Z,72.90
2017-10-25T01:50:00.132Z,73.50
2017-10-25T01:52:26.366Z,74.10
2017-10-25T01:54:53.371Z,75.80
2017-10-25T01:57:19.709Z,75.40
2017-10-25T01:59:45.978Z,75.30
2017-10-25T02:02:13.190Z,76.70
2017-10-25T02:04:40.206Z,76.90
2017-10-25T02:07:06.487Z,76.80
2017-10-25T02:09:33.509Z,77.00
2017-10-25T02:46:14.328Z,70.50
2017-10-25T02:48:40.599Z,71.10
2017-10-25T02:51:08.922Z,71.00
2017-10-25T02:53:35.193Z,72.00
2017-10-25T02:56:01.779Z,72.70
2017-10-25T02:58:28.858Z,73.50
2017-10-25T03:00:55.167Z,74.00
2017-10-25T03:03:21.459Z,75.30
2017-10-25T03:05:47.721Z,75.30
2017-10-25T03:08:14.115Z,75.40
2017-10-25T03:10:40.382Z,75.40
2017-10-25T03:13:08.784Z,75.30
2017-10-25T03:15:35.561Z,75.80
2017-10-25T03:18:03.909Z,76.70
2017-10-25T03:20:30.197Z,75.90
2017-10-25T03:22:59.470Z,76.80
2017-10-25T03:25:25.769Z,75.20
2017-10-25T03:27:52.750Z,75.10
2017-10-25T03:30:20.423Z,75.10
2017-10-25T03:32:46.719Z,75.20
2017-10-25T03:35:12.991Z,75.20
2017-10-25T03:37:40.099Z,75.00
2017-10-25T03:40:06.370Z,74.50
2017-10-25T03:42:32.663Z,75.00
2017-10-25T03:44:58.942Z,74.50
2017-10-25T03:47:25.243Z,74.30
2017-10-25T03:49:51.490Z,73.60
2017-10-25T03:52:17.742Z,73.60
2017-10-25T03:54:44.121Z,73.50
2017-10-25T03:57:11.097Z,73.40
2017-10-25T03:59:37.358Z,73.40
2017-10-25T04:02:04.346Z,72.70
2017-10-25T04:04:30.624Z,72.60
2017-10-25T04:06:56.902Z,72.30
2017-10-25T04:09:24.795Z,72.70
2017-10-25T04:11:51.597Z,71.40
2017-10-25T04:14:18.108Z,71.90
2017-10-25T04:16:47.357Z,71.80
2017-10-25T04:19:13.679Z,72.10
2017-10-25T04:21:39.946Z,72.10
2017-10-25T04:24:06.243Z,72.40
2017-10-25T04:26:32.634Z,72.10
2017-10-25T04:28:58.819Z,72.10
2017-10-25T04:31:25.107Z,72.90
2017-10-25T04:33:51.360Z,72.60
2017-10-25T04:36:17.651Z,72.50
2017-10-25T04:38:44.665Z,72.00
2017-10-25T04:41:10.934Z,72.00
2017-10-25T04:43:37.970Z,72.70
2017-10-25T04:46:05.118Z,72.60
2017-10-25T04:48:31.553Z,72.90
2017-10-25T04:50:57.851Z,72.20
2017-10-25T04:53:24.115Z,72.60
2017-10-25T04:55:51.473Z,72.90
2017-10-25T04:58:20.598Z,72.10
2017-10-25T05:00:46.729Z,71.80
2017-10-25T05:03:12.781Z,71.70
2017-10-25T05:05:40.128Z,71.90
2017-10-25T05:08:06.186Z,71.90
2017-10-25T05:10:32.333Z,72.10
2017-10-25T05:12:58.402Z,71.50
2017-10-25T05:15:24.946Z,71.90
2017-10-25T05:17:51.081Z,71.90
2017-10-25T05:20:18.698Z,71.60
2017-10-25T05:22:46.147Z,71.80
2017-10-25T05:25:14.188Z,71.20
2017-10-25T05:27:40.322Z,70.90
2017-10-25T05:30:07.122Z,71.50
2017-10-25T05:32:33.923Z,71.30
2017-10-25T05:35:00.742Z,71.40
2017-10-25T05:37:26.793Z,71.40
2017-10-25T05:39:52.895Z,71.30
2017-10-25T05:42:20.425Z,70.50
2017-10-25T05:44:47.683Z,70.60
2017-10-25T05:49:45.200Z,70.40
2017-10-25T05:52:11.261Z,71.20
2017-10-25T05:54:37.347Z,70.90
2017-10-25T05:57:03.401Z,70.60
2017-10-25T05:59:29.454Z,70.30
2017-10-25T06:01:55.550Z,70.40
2017-10-25T06:04:21.748Z,70.20
2017-10-25T06:06:47.865Z,70.20
2017-10-25T06:09:17.947Z,69.80
2017-10-25T06:11:44.014Z,69.70
2017-10-25T06:14:10.071Z,69.80
2017-10-25T06:16:36.156Z,69.50
2017-10-25T06:19:02.261Z,69.70
2017-10-25T06:21:28.377Z,69.70
2017-10-25T06:23:54.471Z,69.60
2017-10-25T06:26:20.544Z,69.50
2017-10-25T06:28:46.605Z,69.50
2017-10-25T06:31:14.250Z,69.30
2017-10-25T06:33:40.317Z,69.30
2017-10-25T06:36:08.042Z,69.10
2017-10-25T06:38:34.166Z,69.10
2017-10-25T06:41:00.221Z,68.70
2017-10-25T06:43:26.661Z,69.00
2017-10-25T06:45:52.711Z,68.70
2017-10-25T06:48:18.782Z,68.60
2017-10-25T06:50:44.857Z,68.70
2017-10-25T06:53:11.741Z,68.40
2017-10-25T06:55:39.230Z,68.30
2017-10-25T06:58:05.310Z,68.00
2017-10-25T07:00:31.380Z,68.50
2017-10-25T07:02:57.500Z,68.20
2017-10-25T07:05:24.424Z,68.40
2017-10-25T07:07:50.671Z,68.40
2017-10-25T07:10:16.736Z,68.40
2017-10-25T07:12:44.578Z,67.00
2017-10-25T07:15:10.854Z,66.80
2017-10-25T07:17:37.670Z,66.20
2017-10-25T07:20:03.768Z,66.20
2017-10-25T07:22:30.923Z,66.70
2017-10-25T07:24:57.801Z,66.20
2017-10-25T07:27:23.877Z,66.10
2017-10-25T07:29:52.785Z,65.70
2017-10-25T07:32:18.861Z,65.50
2017-10-25T07:34:45.698Z,65.40
2017-10-25T07:37:11.966Z,65.40
2017-10-25T07:39:40.635Z,65.50
2017-10-25T07:42:09.322Z,65.80
2017-10-25T07:44:35.899Z,65.10
2017-10-25T07:47:02.187Z,64.70
2017-10-25T07:49:28.454Z,64.00
2017-10-25T07:51:56.202Z,63.80
2017-10-25T07:54:22.574Z,63.70
2017-10-25T07:56:48.806Z,64.00
2017-10-25T07:59:15.683Z,63.50
2017-10-25T08:04:40.705Z,63.40
2017-10-25T08:07:07.001Z,62.90
2017-10-25T08:12:04.820Z,62.90
2017-10-25T08:14:31.076Z,62.50
2017-10-25T08:16:57.385Z,63.30
2017-10-25T08:19:23.668Z,62.60
2017-10-25T08:21:49.950Z,61.70
2017-10-25T08:24:17.456Z,61.10
2017-10-25T08:26:49.119Z,62.30
2017-10-25T08:29:15.407Z,60.50
2017-10-25T08:31:42.785Z,59.40
2017-10-25T08:34:08.906Z,59.40
2017-10-25T08:36:34.954Z,57.80
2017-10-25T08:39:01.069Z,57.10
2017-10-25T08:41:27.370Z,57.00
2017-10-25T08:43:53.635Z,56.80
2017-10-25T08:46:24.039Z,57.40
2017-10-25T08:48:50.864Z,56.90
2017-10-25T08:51:17.178Z,58.40
2017-10-25T08:53:44.198Z,57.50
2017-10-25T08:56:10.502Z,57.80
2017-10-25T08:58:37.512Z,58.60
2017-10-25T09:01:04.172Z,58.60
2017-10-25T09:03:30.273Z,58.20
2017-10-25T09:05:58.474Z,56.00
2017-10-25T09:08:25.481Z,57.40
2017-10-25T09:10:51.753Z,57.50
2017-10-25T09:13:18.148Z,58.80
2017-10-25T09:15:45.143Z,57.60
2017-10-25T09:18:11.399Z,57.50
2017-10-25T09:20:37.696Z,56.90
2017-10-25T09:23:03.970Z,58.00
2017-10-25T09:25:34.042Z,58.10
2017-10-25T09:28:00.328Z,57.50
2017-10-25T09:30:26.608Z,57.70
2017-10-25T09:32:52.886Z,57.10
2017-10-25T09:35:19.157Z,58.30
2017-10-25T09:37:45.438Z,56.30
2017-10-25T09:40:11.709Z,57.60
2017-10-25T09:42:38.023Z,56.60
2017-10-25T09:45:07.907Z,57.20
2017-10-25T09:47:34.263Z,56.80
2017-10-25T09:50:00.631Z,58.00
2017-10-25T09:52:28.618Z,57.90
2017-10-25T09:54:54.718Z,58.00
2017-10-25T09:57:20.822Z,56.90
2017-10-25T09:59:47.102Z,57.20
2017-10-25T10:02:14.094Z,58.20
2017-10-25T10:04:42.965Z,58.10
2017-10-25T10:07:09.312Z,56.30
2017-10-25T10:09:35.851Z,56.40
2017-10-25T10:12:02.919Z,55.60
2017-10-25T10:14:30.298Z,55.60
2017-10-25T10:16:56.606Z,55.40
2017-10-25T10:19:22.870Z,54.90
2017-10-25T10:21:53.140Z,54.60
2017-10-25T10:24:19.591Z,54.60
2017-10-25T10:26:45.830Z,54.10
2017-10-25T10:29:12.073Z,53.50
2017-10-25T10:31:38.618Z,52.80
2017-10-25T10:34:04.879Z,53.30
2017-10-25T10:36:31.157Z,53.20
2017-10-25T10:39:02.157Z,53.30
2017-10-25T10:41:29.127Z,52.40
2017-10-25T10:43:55.435Z,52.40
2017-10-25T10:46:22.438Z,53.40
2017-10-25T10:48:48.714Z,53.40
2017-10-25T10:51:14.958Z,53.40
2017-10-25T10:53:41.486Z,52.50
2017-10-25T10:56:07.783Z,53.10
2017-10-25T10:58:38.871Z,53.20
2017-10-25T11:01:05.128Z,53.40
2017-10-25T11:03:31.408Z,54.30
2017-10-25T11:05:58.491Z,53.70
2017-10-25T11:08:25.628Z,54.30
2017-10-25T11:10:51.937Z,54.30
2017-10-25T11:13:19.014Z,54.30
2017-10-25T11:15:45.101Z,53.70
2017-10-25T11:18:13.779Z,54.30
2017-10-25T11:20:40.037Z,53.80
2017-10-25T11:23:06.273Z,54.30
2017-10-25T11:25:33.418Z,54.40
2017-10-25T11:27:59.764Z,54.30
2017-10-25T11:30:26.093Z,53.80
2017-10-25T11:32:52.470Z,54.40
2017-10-25T11:35:22.612Z,54.10
2017-10-25T11:38:00.870Z,54.40
2017-10-25T11:40:27.118Z,55.00
2017-10-25T11:42:53.381Z,54.40
2017-10-25T11:45:19.667Z,54.50
2017-10-25T11:47:48.969Z,54.40
2017-10-25T11:50:15.975Z,55.00
2017-10-25T11:52:42.262Z,55.00
2017-10-25T11:55:08.582Z,55.60
2017-10-25T11:57:34.848Z,55.80
2017-10-25T12:00:01.122Z,56.00
2017-10-25T12:02:34.391Z,55.50
2017-10-25T12:05:07.096Z,56.40
2017-10-25T12:07:33.158Z,56.50
2017-10-25T12:10:00.260Z,56.20
2017-10-25T12:12:26.475Z,55.70
2017-10-25T12:14:53.460Z,56.80
2017-10-25T12:17:21.346Z,56.70
2017-10-25T12:19:52.983Z,57.80
2017-10-25T12:22:19.862Z,57.70
2017-10-25T12:24:45.920Z,57.70
2017-10-25T12:27:12.195Z,58.00
2017-10-25T12:29:38.990Z,58.10
2017-10-25T12:32:05.048Z,58.00
2017-10-25T12:34:32.007Z,58.40
2017-10-25T12:37:01.638Z,57.90
2017-10-25T12:39:27.707Z,58.70
2017-10-25T12:41:53.767Z,58.80
2017-10-25T12:44:19.896Z,58.60
2017-10-25T12:46:46.697Z,58.60
2017-10-25T12:49:12.774Z,58.60
2017-10-25T12:51:39.853Z,59.50
2017-10-25T12:54:05.904Z,59.70
2017-10-25T12:56:35.309Z,59.90
2017-10-25T12:59:01.399Z,59.90
2017-10-25T13:01:28.205Z,59.90
2017-10-25T13:03:54.299Z,59.90
2017-10-25T13:06:20.355Z,59.80
2017-10-25T13:08:47.511Z,61.20
2017-10-25T13:11:22.023Z,61.70
2017-10-25T13:13:49.762Z,61.70
2017-10-25T13:16:17.675Z,61.50
2017-10-25T13:18:43.943Z,61.70
2017-10-25T13:21:10.484Z,61.30
2017-10-25T13:23:36.782Z,61.40
2017-10-25T13:26:03.774Z,61.30
2017-10-25T13:28:31.729Z,61.30
2017-10-25T13:30:58.754Z,61.20
2017-10-25T13:33:25.268Z,61.20
2017-10-25T13:35:51.559Z,60.80
2017-10-25T13:38:17.833Z,62.00
2017-10-25T13:40:45.042Z,61.70
2017-10-25T13:43:12.059Z,60.90
2017-10-25T13:45:38.298Z,61.20
2017-10-25T13:48:08.191Z,61.10
2017-10-25T13:50:34.455Z,61.70
2017-10-25T13:53:02.571Z,61.40
2017-10-25T13:55:28.835Z,61.40
2017-10-25T13:57:55.147Z,61.20
2017-10-25T14:00:21.426Z,62.80
2017-10-25T14:02:47.866Z,64.70
2017-10-25T14:05:14.195Z,65.50
2017-10-25T14:07:43.576Z,65.00
2017-10-25T14:10:10.666Z,64.70
2017-10-25T14:12:37.683Z,65.40
2017-10-25T14:15:03.914Z,65.30
2017-10-25T14:17:30.145Z,65.80
2017-10-25T14:19:56.443Z,66.60
2017-10-25T14:22:22.702Z,66.60
2017-10-25T14:27:34.894Z,67.00
2017-10-25T14:30:01.190Z,66.70
2017-10-25T14:32:27.490Z,67.10
2017-10-25T14:34:53.780Z,68.00
2017-10-25T14:37:21.999Z,67.90
2017-10-25T14:39:49.031Z,68.60
2017-10-25T14:42:15.306Z,68.40
2017-10-25T14:44:41.582Z,69.40
2017-10-25T14:47:08.581Z,70.40
2017-10-25T14:49:34.895Z,69.70
2017-10-25T14:52:01.181Z,70.70
2017-10-25T14:54:27.608Z,70.90
2017-10-25T14:56:53.848Z,72.20
2017-10-25T14:59:20.161Z,73.30
2017-10-25T15:01:47.496Z,73.80
2017-10-25T15:04:14.466Z,74.30
2017-10-25T15:06:41.471Z,74.80
2017-10-25T15:09:07.752Z,74.70
2017-10-25T15:11:34.120Z,74.30
2017-10-25T15:14:01.151Z,74.40
2017-10-25T15:16:27.539Z,74.40
2017-10-25T15:18:56.883Z,75.70
2017-10-25T15:21:23.203Z,76.60
2017-10-25T15:23:49.515Z,77.50
2017-10-25T15:26:15.813Z,77.30
2017-10-25T15:28:43.138Z,77.80
2017-10-25T15:31:09.423Z,77.30
2017-10-25T15:33:35.690Z,76.70
2017-10-25T15:36:01.967Z,77.00
2017-10-25T15:38:28.206Z,76.80
2017-10-25T15:40:54.623Z,76.50
2017-10-25T15:43:21.707Z,77.70
2017-10-25T15:45:47.951Z,77.80
2017-10-25T15:48:14.194Z,77.30
2017-10-25T15:50:40.497Z,77.80
2017-10-25T15:53:06.723Z,78.80
2017-10-25T15:55:34.571Z,79.10
2017-10-25T15:58:00.854Z,78.40
2017-10-25T16:00:28.301Z,79.10
2017-10-25T16:02:55.053Z,79.00
2017-10-25T16:05:21.346Z,78.20
2017-10-25T16:07:47.638Z,79.00
2017-10-25T16:10:13.911Z,78.30
2017-10-25T16:12:40.162Z,79.10
2017-10-25T16:15:06.435Z,78.20
2017-10-25T16:17:32.767Z,77.80
2017-10-25T16:19:59.257Z,77.00
2017-10-25T16:22:25.502Z,77.00
2017-10-25T16:24:51.825Z,77.00
2017-10-25T16:27:18.071Z,76.90
2017-10-25T16:32:20.963Z,77.30
2017-10-25T16:34:47.966Z,76.50
2017-10-25T16:37:14.218Z,76.40
2017-10-25T16:39:40.444Z,76.10
2017-10-25T16:42:08.786Z,75.70
2017-10-25T16:44:35.114Z,75.90
2017-10-25T16:47:04.962Z,75.60
2017-10-25T16:49:31.410Z,76.10
2017-10-25T16:51:59.598Z,75.50
2017-10-25T16:54:26.440Z,75.30
2017-10-25T16:56:54.299Z,75.30
2017-10-25T16:59:20.583Z,75.30
2017-10-25T17:01:46.807Z,74.10
2017-10-25T17:04:16.511Z,75.20
2017-10-25T17:06:43.089Z,74.60
2017-10-25T17:09:09.703Z,75.50
2017-10-25T17:11:36.273Z,75.00
2017-10-25T17:14:02.329Z,75.80
2017-10-25T17:16:28.591Z,75.40
2017-10-25T17:18:55.729Z,74.80
2017-10-25T17:21:23.799Z,75.20
2017-10-25T17:23:50.049Z,74.40
2017-10-25T17:26:17.231Z,74.40
2017-10-25T17:28:43.363Z,74.40
2017-10-25T17:31:10.352Z,73.90
2017-10-25T17:33:38.398Z,73.90
2017-10-25T17:36:04.464Z,74.30
2017-10-25T17:38:31.247Z,74.00
2017-10-25T17:40:58.068Z,73.90
2017-10-25T17:43:25.186Z,73.70
2017-10-25T17:45:56.551Z,74.20
2017-10-25T17:48:22.984Z,74.20
2017-10-25T17:50:56.353Z,73.60
2017-10-25T17:53:27.149Z,73.60
2017-10-25T17:55:55.543Z,74.30
2017-10-25T17:58:22.482Z,74.50
2017-10-25T18:00:48.543Z,74.30
2017-10-25T18:03:14.562Z,74.30
2017-10-25T18:05:42.086Z,74.40
2017-10-25T18:08:08.143Z,74.30
2017-10-25T18:10:34.969Z,73.30
2017-10-25T18:13:01.821Z,73.30
2017-10-25T18:15:28.295Z,73.60
2017-10-25T18:17:55.302Z,74.40
2017-10-25T18:20:22.270Z,74.50
2017-10-25T18:22:48.498Z,74.50
2017-10-25T18:25:14.825Z,74.20
2017-10-25T18:27:42.684Z,73.80
2017-10-25T18:30:09.235Z,73.20
2017-10-25T18:32:35.544Z,73.10
2017-10-25T18:35:01.781Z,73.30
2017-10-25T18:37:28.018Z,73.40
2017-10-25T18:39:55.340Z,72.80
2017-10-25T18:42:23.366Z,73.60
2017-10-25T18:44:49.594Z,73.60
2017-10-25T18:47:15.852Z,73.60
2017-10-25T18:49:42.155Z,73.40
2017-10-25T18:52:08.619Z,73.00
2017-10-25T18:54:35.652Z,72.70
2017-10-25T18:57:01.876Z,72.70
2017-10-25T18:59:28.599Z,72.60
2017-10-25T19:01:54.795Z,72.30
2017-10-25T19:04:21.070Z,72.20
2017-10-25T19:06:47.490Z,73.60
2017-10-25T19:09:15.035Z,73.30
2017-10-25T19:11:42.093Z,73.10
2017-10-25T19:14:09.679Z,73.00
2017-10-25T19:16:36.139Z,73.30
2017-10-25T19:19:03.167Z,73.30
2017-10-25T19:21:30.911Z,73.30
2017-10-25T19:23:58.507Z,72.90
2017-10-25T19:26:25.150Z,72.90
2017-10-25T19:28:51.413Z,73.10
2017-10-25T19:31:17.767Z,73.70
2017-10-25T19:33:44.070Z,73.40
2017-10-25T19:36:10.345Z,73.40
2017-10-25T19:38:36.665Z,73.30
2017-10-25T19:41:02.942Z,72.80
2017-10-25T19:43:29.235Z,72.70
2017-10-25T19:45:55.579Z,72.60
2017-10-25T19:48:24.703Z,71.90
2017-10-25T19:50:51.888Z,71.40
2017-10-25T19:53:18.145Z,71.40
2017-10-25T19:55:46.450Z,71.60
2017-10-25T19:58:12.474Z,71.90
2017-10-25T20:00:38.508Z,72.00
2017-10-25T20:03:04.538Z,72.00
2017-10-25T20:05:30.749Z,72.00
2017-10-25T20:07:57.780Z,71.90
2017-10-25T20:10:24.567Z,71.70
2017-10-25T20:12:53.490Z,71.70
2017-10-25T20:15:19.578Z,71.30
2017-10-25T20:17:47.776Z,71.40
2017-10-25T20:20:14.099Z,71.40
2017-10-25T20:22:40.347Z,72.10
2017-10-25T20:25:06.548Z,72.80
2017-10-25T20:27:35.502Z,72.80
2017-10-25T20:30:01.554Z,72.90
2017-10-25T20:32:28.015Z,72.80
2017-10-25T20:34:54.066Z,72.70
2017-10-25T20:37:20.328Z,72.70
2017-10-25T20:39:48.833Z,72.40
2017-10-25T20:42:17.251Z,72.40
2017-10-25T20:44:43.408Z,73.00
2017-10-25T20:47:11.067Z,72.60
2017-10-25T20:49:37.219Z,72.50
2017-10-25T20:52:04.741Z,71.70
2017-10-25T20:54:30.891Z,72.20
2017-10-25T20:59:22.998Z,72.10
2017-10-25T21:01:51.057Z,71.90
2017-10-25T21:04:17.131Z,71.70
2017-10-25T21:06:44.011Z,71.50
2017-10-25T21:09:10.122Z,71.40
2017-10-25T21:11:37.424Z,71.60
2017-10-25T21:14:04.571Z,71.50
2017-10-25T21:16:30.710Z,71.60
2017-10-25T21:18:57.234Z,72.20
2017-10-25T21:21:24.838Z,71.60
2017-10-25T21:23:52.144Z,71.90
2017-10-25T21:26:19.943Z,72.10
2017-10-25T21:28:49.345Z,72.40
2017-10-25T21:31:16.981Z,72.30
2017-10-25T21:33:43.695Z,71.80
2017-10-25T21:36:11.505Z,71.60
2017-10-25T21:38:38.380Z,71.60
2017-10-25T21:41:04.694Z,71.30
2017-10-25T21:43:33.012Z,71.40
2017-10-25T21:45:59.622Z,71.40
2017-10-25T21:48:25.939Z,71.40
2017-10-25T21:50:53.100Z,72.00
2017-10-25T21:53:20.308Z,72.00
2017-10-25T21:55:47.388Z,72.20
2017-10-25T21:58:13.710Z,72.50
2017-10-25T22:00:39.993Z,71.90
2017-10-25T22:03:07.419Z,72.00
2017-10-25T22:05:33.762Z,71.30
2017-10-25T22:08:04.842Z,72.40
2017-10-25T22:10:31.340Z,72.40
2017-10-25T22:12:57.490Z,72.70
2017-10-25T22:15:23.705Z,73.20
2017-10-25T22:17:50.112Z,73.60
2017-10-25T22:20:18.450Z,73.90
2017-10-25T22:22:44.594Z,74.60
2017-10-25T22:25:10.649Z,74.80
2017-10-25T22:27:37.545Z,75.40
2017-10-25T22:30:04.371Z,75.80
2017-10-25T22:32:34.387Z,75.70
2017-10-25T22:35:00.461Z,75.90
2017-10-25T22:37:27.667Z,74.60
2017-10-25T22:39:54.471Z,74.60
2017-10-25T22:42:26.021Z,73.80
2017-10-25T22:44:52.070Z,73.80
2017-10-25T22:47:18.124Z,73.90
2017-10-25T22:49:44.675Z,73.80
2017-10-25T22:52:14.010Z,73.20
2017-10-25T22:54:40.106Z,72.10
2017-10-25T22:57:07.908Z,72.00
2017-10-25T22:59:34.988Z,71.90
2017-10-25T23:02:02.380Z,71.20
2017-10-25T23:04:28.627Z,71.20
2017-10-25T23:06:57.339Z,71.80
2017-10-25T23:09:23.396Z,71.60
2017-10-25T23:11:51.426Z,71.60
2017-10-25T23:14:17.977Z,72.00
2017-10-25T23:16:45.124Z,72.00
2017-10-25T23:19:11.329Z,71.80
2017-10-25T23:21:37.399Z,72.10
2017-10-25T23:24:03.555Z,72.20
2017-10-25T23:26:29.682Z,72.20
2017-10-25T23:28:56.474Z,73.20
2017-10-25T23:31:22.562Z,73.20
2017-10-25T23:33:48.756Z,73.20
2017-10-25T23:36:14.809Z,72.60
2017-10-25T23:38:40.857Z,72.30
2017-10-25T23:41:06.926Z,72.00
2017-10-25T23:43:34.638Z,72.50
2017-10-25T23:46:00.916Z,71.70
2017-10-25T23:48:26.975Z,71.80
2017-10-25T23:50:53.016Z,71.80
2017-10-25T23:53:21.673Z,71.90
2017-10-25T23:55:47.878Z,71.90
2017-10-25T23:58:13.953Z,71.80
